createdAt,value
2023-02-27T00:00:18.200Z,53771.84
2023-02-27T00:02:45.422Z,53767.72
2023-02-27T00:05:18.212Z,53757.38
2023-02-27T00:08:09.453Z,53788.41
2023-02-27T00:10:44.174Z,53763.59
2023-02-27T00:13:11.795Z,53780.13
2023-02-27T00:15:40.730Z,53780.13
2023-02-27T00:18:07.580Z,53749.09
2023-02-27T00:20:37.841Z,53753.25
2023-02-27T00:23:05.321Z,53749.09
2023-02-27T00:25:32.071Z,53740.84
2023-02-27T00:27:58.498Z,53730.50
2023-02-27T00:30:26.396Z,53749.09
2023-02-27T00:32:53.390Z,53767.72
2023-02-27T00:35:20.226Z,53705.69
2023-02-27T00:37:46.596Z,53749.09
2023-02-27T00:40:13.037Z,53720.16
2023-02-27T00:42:39.410Z,53744.97
2023-02-27T00:45:06.167Z,53738.78
2023-02-27T00:47:32.995Z,53782.19
2023-02-27T00:49:59.286Z,53701.56
2023-02-27T00:52:25.757Z,53718.09
2023-02-27T00:54:52.027Z,53732.56
2023-02-27T00:57:18.332Z,53720.16
2023-02-27T00:59:45.116Z,53732.56
2023-02-27T01:02:14.140Z,53765.66
2023-02-27T01:04:40.540Z,53711.91
2023-02-27T01:07:06.859Z,53753.25
2023-02-27T01:09:33.155Z,53734.63
2023-02-27T01:11:59.511Z,53716.03
2023-02-27T01:14:25.985Z,53726.38
2023-02-27T01:16:52.299Z,53744.97
2023-02-27T01:19:18.642Z,53722.22
2023-02-27T01:21:44.942Z,53716.03
2023-02-27T01:24:11.476Z,53697.41
2023-02-27T01:26:37.793Z,53705.69
2023-02-27T01:29:06.681Z,53707.75
2023-02-27T01:31:33.383Z,53709.81
2023-02-27T01:33:59.757Z,53726.38
2023-02-27T01:36:26.080Z,53691.22
2023-02-27T01:38:52.368Z,53670.53
2023-02-27T01:41:18.868Z,53701.56
2023-02-27T01:43:55.676Z,53668.47
2023-02-27T01:46:22.531Z,53674.69
2023-02-27T01:48:54.244Z,53678.81
2023-02-27T01:51:20.730Z,53709.81
2023-02-27T01:53:48.595Z,53701.56
2023-02-27T01:56:16.673Z,53672.59
2023-02-27T01:58:43.313Z,53689.16
2023-02-27T02:01:09.820Z,53709.81
2023-02-27T02:03:41.638Z,53682.94
2023-02-27T02:06:08.098Z,53703.63
2023-02-27T02:08:35.500Z,53711.91
2023-02-27T02:11:01.961Z,53730.50
2023-02-27T02:13:28.281Z,53761.50
2023-02-27T02:16:04.738Z,53682.94
2023-02-27T02:18:34.517Z,53699.50
2023-02-27T02:21:09.994Z,53707.75
2023-02-27T02:23:36.274Z,53674.69
2023-02-27T02:26:12.880Z,53689.16
2023-02-27T02:28:46.059Z,53713.97
2023-02-27T02:31:18.715Z,53722.22
2023-02-27T02:33:57.156Z,53720.16
2023-02-27T02:36:38.496Z,53711.91
2023-02-27T02:39:13.867Z,53699.50
2023-02-27T02:41:49.308Z,53718.09
2023-02-27T02:44:24.183Z,53695.34
2023-02-27T02:46:55.072Z,53713.97
2023-02-27T02:49:25.236Z,53720.16
2023-02-27T02:52:09.349Z,53674.69
2023-02-27T02:54:41.753Z,53682.94
2023-02-27T02:57:17.970Z,53703.63
2023-02-27T02:59:53.527Z,53709.81
2023-02-27T03:02:24.291Z,53685.00
2023-02-27T03:04:56.380Z,53738.78
2023-02-27T03:07:36.072Z,53713.97
2023-02-27T03:10:12.596Z,53724.28
2023-02-27T03:12:39.567Z,53691.22
2023-02-27T03:15:06.240Z,53709.81
2023-02-27T03:17:35.349Z,53763.59
2023-02-27T03:20:07.979Z,53744.97
2023-02-27T03:22:35.606Z,53724.28
2023-02-27T03:25:02.464Z,53753.25
2023-02-27T03:27:30.608Z,53751.19
2023-02-27T03:29:58.324Z,53765.66
2023-02-27T03:32:25.687Z,53815.28
2023-02-27T03:34:52.039Z,53792.53
2023-02-27T03:37:41.564Z,53773.91
2023-02-27T03:40:31.221Z,53744.97
2023-02-27T03:43:00.939Z,53732.56
2023-02-27T03:45:27.273Z,53689.16
2023-02-27T03:47:53.684Z,53658.13
2023-02-27T03:50:19.999Z,53658.13
2023-02-27T03:52:46.305Z,53602.31
2023-02-27T03:55:19.557Z,53608.50
2023-02-27T03:57:46.919Z,53583.72
2023-02-27T04:00:18.021Z,53577.50
2023-02-27T04:02:44.464Z,53589.91
2023-02-27T04:05:10.800Z,53598.19
2023-02-27T04:07:37.065Z,53575.44
2023-02-27T04:10:22.142Z,53608.50
2023-02-27T04:13:00.980Z,53594.03
2023-02-27T04:15:27.256Z,53623.00
2023-02-27T04:17:53.520Z,53612.66
2023-02-27T04:20:39.428Z,53563.03
2023-02-27T04:23:05.660Z,53589.91
2023-02-27T04:25:32.041Z,53591.97
2023-02-27T04:28:02.147Z,53602.31
2023-02-27T04:30:40.697Z,53579.56
2023-02-27T04:33:14.913Z,53610.59
2023-02-27T04:35:43.798Z,53573.38
2023-02-27T04:38:20.790Z,53598.19
2023-02-27T04:40:52.197Z,53554.75
2023-02-27T04:43:18.509Z,53565.09
2023-02-27T04:45:44.882Z,53577.50
2023-02-27T04:48:24.931Z,53585.78
2023-02-27T04:50:52.476Z,53610.59
2023-02-27T04:53:48.216Z,53639.53
2023-02-27T04:56:16.602Z,53651.94
2023-02-27T04:58:50.761Z,53699.50
2023-02-27T05:01:19.796Z,53695.34
2023-02-27T05:03:47.486Z,53685.00
2023-02-27T05:06:14.094Z,53687.09
2023-02-27T05:08:43.614Z,53695.34
2023-02-27T05:11:33.409Z,53703.63
2023-02-27T05:14:02.608Z,53713.97
2023-02-27T05:16:32.978Z,53707.75
2023-02-27T05:18:59.415Z,53691.22
2023-02-27T05:21:25.969Z,53670.53
2023-02-27T05:24:01.765Z,53685.00
2023-02-27T05:26:52.292Z,53699.50
2023-02-27T05:29:30.792Z,53687.09
2023-02-27T05:32:02.023Z,53668.47
2023-02-27T05:34:47.658Z,53680.88
2023-02-27T05:37:15.186Z,53680.88
2023-02-27T05:39:41.468Z,53670.53
2023-02-27T05:42:15.626Z,53697.41
2023-02-27T05:44:43.337Z,53670.53
2023-02-27T05:47:11.006Z,53672.59
2023-02-27T05:49:38.853Z,53726.38
2023-02-27T05:52:05.418Z,53724.28
2023-02-27T05:54:34.080Z,53765.66
2023-02-27T05:57:02.807Z,53788.41
2023-02-27T05:59:47.912Z,53796.66
2023-02-27T06:02:14.556Z,53788.41
2023-02-27T06:04:41.188Z,53780.13
2023-02-27T06:07:08.644Z,53809.06
2023-02-27T06:09:35.024Z,53811.13
2023-02-27T06:12:01.448Z,53782.19
2023-02-27T06:14:28.064Z,53790.47
2023-02-27T06:16:54.419Z,53854.56
2023-02-27T06:19:20.749Z,53833.88
2023-02-27T06:21:47.085Z,53844.22
2023-02-27T06:24:13.389Z,53807.00
2023-02-27T06:26:39.670Z,53835.94
2023-02-27T06:29:05.977Z,53864.91
2023-02-27T06:31:32.271Z,53869.03
2023-02-27T06:33:58.593Z,53906.25
2023-02-27T06:36:25.122Z,53918.66
2023-02-27T06:38:51.607Z,53887.63
2023-02-27T06:41:17.902Z,53955.88
2023-02-27T06:43:44.349Z,53939.34
2023-02-27T06:46:10.719Z,53947.59
2023-02-27T06:48:37.386Z,53947.59
2023-02-27T06:51:03.715Z,53941.41
2023-02-27T06:53:30.055Z,53897.97
2023-02-27T06:55:56.338Z,53943.47
2023-02-27T06:58:24.670Z,53935.19
2023-02-27T07:00:51.009Z,53922.78
2023-02-27T07:03:17.410Z,53916.59
2023-02-27T07:05:43.730Z,53953.81
2023-02-27T07:08:10.245Z,53960.00
2023-02-27T07:10:36.607Z,53974.47
2023-02-27T07:13:03.412Z,53984.81
2023-02-27T07:15:29.735Z,53976.53
2023-02-27T07:17:56.029Z,53960.00
2023-02-27T07:20:22.389Z,53889.72
2023-02-27T07:22:49.111Z,53802.88
2023-02-27T07:25:15.403Z,53730.50
2023-02-27T07:27:44.289Z,53604.38
2023-02-27T07:30:11.140Z,53474.13
2023-02-27T07:32:37.445Z,53335.63
2023-02-27T07:35:05.289Z,53286.00
2023-02-27T07:37:31.588Z,53246.72
2023-02-27T07:39:57.904Z,53219.84
2023-02-27T07:42:24.430Z,53170.22
2023-02-27T07:44:50.736Z,53182.63
2023-02-27T07:47:17.745Z,53205.38
2023-02-27T07:49:44.054Z,53195.03
2023-02-27T07:52:11.182Z,53190.91
2023-02-27T07:54:37.604Z,53203.31
2023-02-27T07:57:04.555Z,53230.19
2023-02-27T07:59:30.844Z,53215.72
2023-02-27T08:01:57.214Z,53250.84
2023-02-27T08:04:23.770Z,53244.66
2023-02-27T08:06:50.109Z,53267.41
2023-02-27T08:09:16.601Z,53236.38
2023-02-27T08:11:42.942Z,53255.00
2023-02-27T08:14:09.431Z,53228.13
2023-02-27T08:16:35.771Z,53240.53
2023-02-27T08:19:02.149Z,53226.03
2023-02-27T08:21:29.082Z,53236.38
2023-02-27T08:23:55.721Z,53174.38
2023-02-27T08:29:02.994Z,53178.50
2023-02-27T08:31:29.357Z,53155.75
2023-02-27T08:34:04.393Z,53170.22
2023-02-27T08:36:35.400Z,53182.63
2023-02-27T08:39:01.730Z,53219.84
2023-02-27T08:41:28.101Z,53203.31
2023-02-27T08:43:54.447Z,53255.00
2023-02-27T08:46:20.740Z,53228.13
2023-02-27T08:48:47.061Z,53279.81
2023-02-27T08:51:13.371Z,53252.94
2023-02-27T08:53:39.717Z,53267.41
2023-02-27T08:56:06.146Z,53252.94
2023-02-27T08:58:32.534Z,53290.13
2023-02-27T09:00:58.891Z,53337.69
2023-02-27T09:03:28.472Z,53323.22
2023-02-27T09:05:55.486Z,53343.88
2023-02-27T09:08:22.117Z,53345.94
2023-02-27T09:10:50.867Z,53335.63
2023-02-27T09:13:17.220Z,53345.94
2023-02-27T09:15:43.515Z,53376.97
2023-02-27T09:18:09.868Z,53358.34
2023-02-27T09:20:36.174Z,53372.81
2023-02-27T09:23:02.766Z,53403.84
2023-02-27T09:25:29.262Z,53401.78
2023-02-27T09:27:58.033Z,53407.97
2023-02-27T09:30:24.721Z,53426.59
2023-02-27T09:32:51.192Z,53451.38
2023-02-27T09:35:17.747Z,53451.38
2023-02-27T09:37:44.037Z,53470.00
2023-02-27T09:40:29.631Z,53470.00
2023-02-27T09:43:03.522Z,53492.75
2023-02-27T09:45:30.777Z,53494.81
2023-02-27T09:48:03.207Z,53490.66
2023-02-27T09:50:40.038Z,53529.94
2023-02-27T09:53:07.235Z,53525.81
2023-02-27T09:55:34.921Z,53542.34
2023-02-27T09:58:17.815Z,53563.03
2023-02-27T10:00:48.522Z,53563.03
2023-02-27T10:03:17.971Z,53573.38
2023-02-27T10:05:50.571Z,53583.72
2023-02-27T10:08:29.899Z,53573.38
2023-02-27T10:11:00.993Z,53585.78
2023-02-27T10:13:27.294Z,53585.78
2023-02-27T10:15:53.968Z,53569.22
2023-02-27T10:18:27.603Z,53596.13
2023-02-27T10:20:56.306Z,53589.91
2023-02-27T10:23:24.347Z,53637.47
2023-02-27T10:25:50.722Z,53633.31
2023-02-27T10:28:18.165Z,53651.94
2023-02-27T10:30:46.840Z,53631.25
2023-02-27T10:33:16.566Z,53656.06
2023-02-27T10:35:43.489Z,53645.72
2023-02-27T10:38:14.313Z,53672.59
2023-02-27T10:40:40.638Z,53654.00
2023-02-27T10:43:07.192Z,53658.13
2023-02-27T10:45:33.925Z,53618.84
2023-02-27T10:48:03.300Z,53680.88
2023-02-27T10:50:31.798Z,53691.22
2023-02-27T10:53:01.804Z,53703.63
2023-02-27T10:55:32.217Z,53713.97
2023-02-27T10:57:58.603Z,53699.50
2023-02-27T11:00:41.795Z,53695.34
2023-02-27T11:03:15.661Z,53732.56
2023-02-27T11:05:41.958Z,53736.69
2023-02-27T11:08:13.076Z,53736.69
2023-02-27T11:10:39.363Z,53747.03
2023-02-27T11:13:06.783Z,53755.31
2023-02-27T11:15:35.691Z,53753.25
2023-02-27T11:18:21.117Z,53788.41
2023-02-27T11:20:50.627Z,53763.59
2023-02-27T11:23:18.312Z,53759.44
2023-02-27T11:25:44.602Z,53747.03
2023-02-27T11:28:14.012Z,53763.59
2023-02-27T11:30:42.041Z,53732.56
2023-02-27T11:33:12.418Z,53778.06
2023-02-27T11:35:38.849Z,53761.50
2023-02-27T11:38:18.222Z,53738.78
2023-02-27T11:40:50.784Z,53757.38
2023-02-27T11:43:18.334Z,53802.88
2023-02-27T11:46:18.070Z,53773.91
2023-02-27T11:48:32.284Z,53790.47
2023-02-27T11:50:58.577Z,53804.94
2023-02-27T11:53:27.897Z,53747.03
2023-02-27T11:55:54.798Z,53761.50
2023-02-27T11:58:22.110Z,53769.78
2023-02-27T12:00:53.555Z,53773.91
2023-02-27T12:03:32.163Z,53809.06
2023-02-27T12:05:59.973Z,53794.59
2023-02-27T12:08:34.586Z,53819.41
2023-02-27T12:11:29.188Z,53802.88
2023-02-27T12:13:59.978Z,53798.72
2023-02-27T12:16:35.314Z,53827.69
2023-02-27T12:19:04.452Z,53842.16
2023-02-27T12:21:34.711Z,53889.72
2023-02-27T12:24:04.093Z,53877.31
2023-02-27T12:26:41.007Z,53891.78
2023-02-27T12:29:26.280Z,53877.31
2023-02-27T12:31:55.608Z,53856.63
2023-02-27T12:34:29.193Z,53817.34
2023-02-27T12:36:58.450Z,53842.16
2023-02-27T12:39:24.814Z,53831.81
2023-02-27T12:42:00.380Z,53891.78
2023-02-27T12:44:45.586Z,53883.50
2023-02-27T12:47:21.164Z,53825.59
2023-02-27T12:49:58.998Z,53875.22
2023-02-27T12:52:28.272Z,53895.91
2023-02-27T12:55:01.528Z,53869.03
2023-02-27T12:57:28.845Z,53889.72
2023-02-27T13:00:12.446Z,53840.09
2023-02-27T13:02:50.977Z,53866.97
2023-02-27T13:05:17.276Z,53848.34
2023-02-27T13:07:48.008Z,53827.69
2023-02-27T13:10:14.285Z,53891.78
2023-02-27T13:12:45.074Z,53835.94
2023-02-27T13:15:14.291Z,53891.78
2023-02-27T13:17:43.560Z,53895.91
2023-02-27T13:20:22.224Z,53877.31
2023-02-27T13:22:51.229Z,53877.31
2023-02-27T13:25:17.581Z,53858.69
2023-02-27T13:27:43.857Z,53858.69
2023-02-27T13:30:10.442Z,53873.16
2023-02-27T13:32:43.970Z,53885.56
2023-02-27T13:35:17.310Z,53869.03
2023-02-27T13:38:04.308Z,53897.97
2023-02-27T13:40:37.061Z,53885.56
2023-02-27T13:43:22.194Z,53883.50
2023-02-27T13:45:48.674Z,53848.34
2023-02-27T13:48:33.107Z,53831.81
2023-02-27T13:50:59.832Z,53889.72
2023-02-27T13:53:26.174Z,53912.44
2023-02-27T13:55:53.429Z,53883.50
2023-02-27T13:58:19.940Z,53877.31
2023-02-27T14:00:53.621Z,53866.97
2023-02-27T14:03:20.794Z,53875.22
2023-02-27T14:05:47.622Z,53889.72
2023-02-27T14:08:17.159Z,53869.03
2023-02-27T14:11:03.708Z,53873.16
2023-02-27T14:13:45.385Z,53875.22
2023-02-27T14:16:12.670Z,53854.56
2023-02-27T14:18:50.542Z,53902.13
2023-02-27T14:21:35.549Z,53897.97
2023-02-27T14:24:01.818Z,53931.06
2023-02-27T14:26:28.318Z,53910.38
2023-02-27T14:28:56.397Z,53889.72
2023-02-27T14:31:22.790Z,53937.25
2023-02-27T14:33:50.503Z,53871.09
2023-02-27T14:36:16.755Z,53900.03
2023-02-27T14:38:43.196Z,53910.38
2023-02-27T14:41:12.569Z,53873.16
2023-02-27T14:43:40.068Z,53935.19
2023-02-27T14:46:14.901Z,53893.84
2023-02-27T14:48:41.717Z,53926.94
2023-02-27T14:51:08.004Z,53939.34
2023-02-27T14:53:34.771Z,53900.03
2023-02-27T14:56:01.115Z,53910.38
2023-02-27T14:58:27.697Z,53910.38
2023-02-27T15:01:05.148Z,53947.59
2023-02-27T15:03:45.135Z,53926.94
2023-02-27T15:06:22.188Z,53931.06
2023-02-27T15:08:49.735Z,53935.19
2023-02-27T15:11:16.943Z,53904.19
2023-02-27T15:13:43.630Z,53943.47
2023-02-27T15:16:19.528Z,53964.16
2023-02-27T15:18:49.539Z,53933.13
2023-02-27T15:21:15.862Z,53984.81
2023-02-27T15:23:42.138Z,53937.25
2023-02-27T15:26:10.160Z,53964.16
2023-02-27T15:28:37.469Z,53993.09
2023-02-27T15:31:03.896Z,53997.22
2023-02-27T15:33:31.021Z,53980.69
2023-02-27T15:35:57.409Z,53997.22
2023-02-27T15:38:25.192Z,53995.16
2023-02-27T15:40:51.645Z,53970.34
2023-02-27T15:43:18.921Z,53955.88
2023-02-27T15:45:45.806Z,53939.34
2023-02-27T15:48:12.806Z,53962.06
2023-02-27T15:50:41.476Z,53926.94
2023-02-27T15:53:07.716Z,53943.47
2023-02-27T15:55:34.944Z,53960.00
2023-02-27T15:58:03.421Z,53931.06
2023-02-27T16:00:30.417Z,53889.72
2023-02-27T16:02:57.416Z,53960.00
2023-02-27T16:05:23.684Z,53943.47
2023-02-27T16:07:50.132Z,53916.59
2023-02-27T16:10:18.798Z,53922.78
2023-02-27T16:12:46.213Z,53931.06
2023-02-27T16:15:12.484Z,53943.47
2023-02-27T16:17:38.786Z,53906.25
2023-02-27T16:20:25.001Z,53943.47
2023-02-27T16:23:14.591Z,53937.25
2023-02-27T16:25:41.308Z,53881.44
2023-02-27T16:28:14.574Z,53924.84
2023-02-27T16:30:41.594Z,53914.53
2023-02-27T16:33:10.996Z,53902.13
2023-02-27T16:35:39.704Z,53918.66
2023-02-27T16:38:06.050Z,53939.34
2023-02-27T16:40:33.985Z,53902.13
2023-02-27T16:43:01.309Z,53920.72
2023-02-27T16:45:28.263Z,53902.13
2023-02-27T16:47:55.840Z,53924.84
2023-02-27T16:50:22.119Z,53902.13
2023-02-27T16:52:48.539Z,53920.72
2023-02-27T16:55:14.844Z,53881.44
2023-02-27T16:57:41.164Z,53897.97
2023-02-27T17:00:07.783Z,53869.03
2023-02-27T17:02:34.283Z,53902.13
2023-02-27T17:05:00.674Z,53904.19
2023-02-27T17:07:27.092Z,53891.78
2023-02-27T17:09:53.443Z,53887.63
2023-02-27T17:12:19.762Z,53887.63
2023-02-27T17:14:46.253Z,53895.91
2023-02-27T17:17:12.587Z,53877.31
2023-02-27T17:19:39.128Z,53858.69
2023-02-27T17:22:05.517Z,53885.56
2023-02-27T17:24:31.803Z,53883.50
2023-02-27T17:26:58.164Z,53893.84
2023-02-27T17:29:24.558Z,53877.31
2023-02-27T17:31:50.999Z,53877.31
2023-02-27T17:34:17.296Z,53850.41
2023-02-27T17:36:43.583Z,53831.81
2023-02-27T17:39:11.048Z,53891.78
2023-02-27T17:41:37.410Z,53869.03
2023-02-27T17:44:06.246Z,53844.22
2023-02-27T17:46:32.909Z,53873.16
2023-02-27T17:49:02.647Z,53854.56
2023-02-27T17:51:29.527Z,53887.63
2023-02-27T17:53:55.985Z,53866.97
2023-02-27T17:56:22.333Z,53833.88
2023-02-27T17:58:48.666Z,53838.00
2023-02-27T18:01:17.249Z,53877.31
2023-02-27T18:03:46.604Z,53852.50
2023-02-27T18:06:12.983Z,53829.75
2023-02-27T18:08:39.294Z,53838.00
2023-02-27T18:11:09.361Z,53869.03
2023-02-27T18:13:35.679Z,53827.69
2023-02-27T18:16:03.701Z,53846.28
2023-02-27T18:18:30.041Z,53881.44
2023-02-27T18:21:00.769Z,53860.75
2023-02-27T18:23:27.091Z,53838.00
2023-02-27T18:25:54.395Z,53854.56
2023-02-27T18:28:21.272Z,53875.22
2023-02-27T18:30:47.684Z,53862.81
2023-02-27T18:33:13.997Z,53881.44
2023-02-27T18:35:40.381Z,53856.63
2023-02-27T18:38:06.806Z,53883.50
2023-02-27T18:40:33.349Z,53840.09
2023-02-27T18:42:59.787Z,53840.09
2023-02-27T18:45:26.269Z,53840.09
2023-02-27T18:47:52.962Z,53856.63
2023-02-27T18:50:19.286Z,53844.22
2023-02-27T18:52:47.153Z,53844.22
2023-02-27T18:55:13.867Z,53860.75
2023-02-27T18:57:40.538Z,53846.28
2023-02-27T19:00:07.271Z,53866.97
2023-02-27T19:02:33.790Z,53844.22
2023-02-27T19:05:00.939Z,53869.03
2023-02-27T19:07:29.803Z,53840.09
2023-02-27T19:09:56.107Z,53842.16
2023-02-27T19:12:22.469Z,53844.22
2023-02-27T19:14:49.488Z,53862.81
2023-02-27T19:17:15.835Z,53850.41
2023-02-27T19:19:42.200Z,53823.53
2023-02-27T19:22:08.655Z,53850.41
2023-02-27T19:24:34.933Z,53852.50
2023-02-27T19:27:01.270Z,53833.88
2023-02-27T19:29:27.599Z,53848.34
2023-02-27T19:31:54.297Z,53833.88
2023-02-27T19:34:20.712Z,53840.09
2023-02-27T19:36:47.020Z,53873.16
2023-02-27T19:39:13.327Z,53850.41
2023-02-27T19:41:39.883Z,53831.81
2023-02-27T19:44:06.267Z,53864.91
2023-02-27T19:46:33.726Z,53838.00
2023-02-27T19:49:01.335Z,53873.16
2023-02-27T19:51:27.735Z,53846.28
2023-02-27T19:53:54.090Z,53856.63
2023-02-27T19:56:21.690Z,53856.63
2023-02-27T19:58:48.124Z,53835.94
2023-02-27T20:01:21.629Z,53825.59
2023-02-27T20:03:47.980Z,53835.94
2023-02-27T20:06:15.215Z,53835.94
2023-02-27T20:08:41.504Z,53833.88
2023-02-27T20:11:07.806Z,53840.09
2023-02-27T20:13:34.099Z,53811.13
2023-02-27T20:16:07.332Z,53798.72
2023-02-27T20:18:34.108Z,53807.00
2023-02-27T20:21:00.393Z,53813.19
2023-02-27T20:23:26.910Z,53809.06
2023-02-27T20:25:53.235Z,53850.41
2023-02-27T20:28:19.713Z,53811.13
2023-02-27T20:30:46.630Z,53798.72
2023-02-27T20:33:12.950Z,53819.41
2023-02-27T20:35:39.398Z,53813.19
2023-02-27T20:38:08.701Z,53829.75
2023-02-27T20:40:34.989Z,53840.09
2023-02-27T20:43:03.405Z,53827.69
2023-02-27T20:45:29.832Z,53819.41
2023-02-27T20:47:56.113Z,53815.28
2023-02-27T20:50:22.438Z,53829.75
2023-02-27T20:52:48.735Z,53800.81
2023-02-27T20:55:15.069Z,53809.06
2023-02-27T20:57:41.365Z,53788.41
2023-02-27T21:00:12.131Z,53794.59
2023-02-27T21:02:38.530Z,53821.47
2023-02-27T21:05:07.504Z,53819.41
2023-02-27T21:07:34.077Z,53817.34
2023-02-27T21:10:00.469Z,53844.22
2023-02-27T21:12:26.742Z,53798.72
2023-02-27T21:14:53.097Z,53831.81
2023-02-27T21:17:19.413Z,53831.81
2023-02-27T21:19:45.765Z,53821.47
2023-02-27T21:22:12.100Z,53823.53
2023-02-27T21:24:38.412Z,53809.06
2023-02-27T21:27:05.470Z,53840.09
2023-02-27T21:29:32.056Z,53833.88
2023-02-27T21:31:58.424Z,53821.47
2023-02-27T21:34:25.583Z,53829.75
2023-02-27T21:36:52.362Z,53815.28
2023-02-27T21:39:22.792Z,53780.13
2023-02-27T21:41:49.337Z,53776.00
2023-02-27T21:44:17.327Z,53792.53
2023-02-27T21:46:43.699Z,53759.44
2023-02-27T21:49:13.451Z,53765.66
2023-02-27T21:51:41.321Z,53778.06
2023-02-27T21:54:09.311Z,53765.66
2023-02-27T21:56:35.658Z,53763.59
2023-02-27T21:59:02.071Z,53767.72
2023-02-27T22:01:29.089Z,53776.00
2023-02-27T22:03:55.757Z,53744.97
2023-02-27T22:06:22.999Z,53751.19
2023-02-27T22:08:52.324Z,53730.50
2023-02-27T22:11:18.692Z,53759.44
2023-02-27T22:13:44.990Z,53722.22
2023-02-27T22:16:12.318Z,53744.97
2023-02-27T22:18:39.295Z,53773.91
2023-02-27T22:21:13.293Z,53765.66
2023-02-27T22:23:39.636Z,53749.09
2023-02-27T22:26:07.392Z,53749.09
2023-02-27T22:28:34.248Z,53744.97
2023-02-27T22:31:14.816Z,53761.50
2023-02-27T22:33:43.923Z,53720.16
2023-02-27T22:36:14.485Z,53730.50
2023-02-27T22:38:40.768Z,53711.91
2023-02-27T22:41:08.151Z,53687.09
2023-02-27T22:43:34.812Z,53701.56
2023-02-27T22:46:01.757Z,53689.16
2023-02-27T22:48:28.064Z,53703.63
2023-02-27T22:51:14.287Z,53662.28
2023-02-27T22:53:41.283Z,53662.28
2023-02-27T22:56:13.248Z,53664.34
2023-02-27T22:58:39.982Z,53699.50
2023-02-27T23:01:19.751Z,53672.59
2023-02-27T23:03:47.090Z,53724.28
2023-02-27T23:06:15.319Z,53711.91
2023-02-27T23:08:42.237Z,53757.38
2023-02-27T23:11:09.033Z,53740.84
2023-02-27T23:13:35.437Z,53732.56
2023-02-27T23:16:01.958Z,53757.38
2023-02-27T23:18:28.281Z,53728.44
2023-02-27T23:20:54.610Z,53724.28
2023-02-27T23:23:20.967Z,53724.28
2023-02-27T23:25:47.255Z,53749.09
2023-02-27T23:28:13.640Z,53740.84
2023-02-27T23:30:39.963Z,53676.75
2023-02-27T23:33:06.293Z,53701.56
2023-02-27T23:35:32.614Z,53722.22
2023-02-27T23:37:59.183Z,53662.28
2023-02-27T23:40:26.043Z,53680.88
2023-02-27T23:42:52.318Z,53670.53
2023-02-27T23:45:24.783Z,53701.56
2023-02-27T23:47:52.020Z,53724.28
2023-02-27T23:50:20.552Z,53703.63
2023-02-27T23:52:50.373Z,53691.22
2023-02-27T23:55:17.175Z,53753.25
2023-02-27T23:57:43.514Z,53734.63
